Time;durP1;ratioP1;P1;durP2;ratioP2;P2;SDS_P1;SDS_P2;PMS_P1;PMS_P2;Temp;Humidity;BMP_temperature;BMP_pressure;BME280_temperature;BME280_humidity;BME280_pressure;Samples;Min_cycle;Max_cycle;Signal;HPM_P1;HPM_P2
2023/08/27 00:00:31;;;;;;;1.08;0.43;;;;;;;20.21;55.76;100705.88;10411941;28;96701;-78
2023/08/27 00:05:35;;;;;;;1.40;0.32;;;;;;;20.06;56.18;100704.31;10373145;28;96777;-78
2023/08/27 00:10:38;;;;;;;0.40;0.30;;;;;;;19.81;56.86;100704.31;10373121;28;97222;-78
2023/08/27 00:15:47;;;;;;;0.82;0.30;;;;;;;19.76;57.23;100702.91;10372923;28;96608;-78
2023/08/27 00:20:50;;;;;;;1.10;0.70;;;;;;;19.95;56.70;100717.56;10373345;28;97658;-79
2023/08/27 00:25:53;;;;;;;1.13;0.40;;;;;;;19.99;56.52;100724.41;10372650;28;96810;-79
2023/08/27 00:31:03;;;;;;;1.45;0.63;;;;;;;19.92;56.55;100725.78;10372236;28;96807;-79
2023/08/27 00:36:06;;;;;;;1.38;0.47;;;;;;;19.68;57.19;100718.63;10372824;28;96779;-79
2023/08/27 00:41:10;;;;;;;0.50;0.50;;;;;;;19.43;57.93;100724.81;10372405;28;98094;-78
2023/08/27 00:46:14;;;;;;;1.35;0.40;;;;;;;19.54;57.90;100716.94;10409039;28;96916;-79
2023/08/27 00:51:18;;;;;;;3.25;0.52;;;;;;;19.80;57.09;100728.47;10412002;28;97445;-78
2023/08/27 00:56:22;;;;;;;0.82;0.30;;;;;;;19.73;57.46;100728.03;10371594;28;96906;-79
2023/08/27 01:01:29;;;;;;;2.25;0.60;;;;;;;19.81;57.46;100723.00;10391599;28;96721;-79
2023/08/27 01:06:33;;;;;;;0.82;0.50;;;;;;;19.31;58.38;100717.59;10413028;28;96624;-78
2023/08/27 01:11:47;;;;;;;1.20;0.65;;;;;;;19.43;58.25;100716.81;10383517;28;96734;-78
2023/08/27 01:16:52;;;;;;;2.00;0.63;;;;;;;19.45;58.23;100712.22;10382378;22;97787;-79
2023/08/27 01:21:57;;;;;;;1.92;0.60;;;;;;;19.57;58.00;100706.03;10413523;28;96585;-79
2023/08/27 01:27:05;;;;;;;1.48;0.68;;;;;;;19.42;58.64;100700.91;10396712;28;96812;-79
2023/08/27 01:32:16;;;;;;;1.15;0.70;;;;;;;19.26;58.81;100707.25;10370122;28;96688;-79
2023/08/27 01:37:21;;;;;;;1.33;0.70;;;;;;;19.28;58.75;100713.31;10369609;28;96746;-78
2023/08/27 01:42:24;;;;;;;1.00;0.60;;;;;;;19.22;58.67;100721.75;10378563;28;98001;-79
2023/08/27 01:47:28;;;;;;;1.48;0.70;;;;;;;19.24;58.92;100735.00;10419228;28;96832;-79
2023/08/27 01:52:33;;;;;;;1.55;0.60;;;;;;;19.20;58.95;100737.00;10419336;28;96751;-78
2023/08/27 01:57:37;;;;;;;0.75;0.57;;;;;;;19.02;59.36;100724.91;10419123;28;96697;-78
2023/08/27 02:02:40;;;;;;;1.15;0.63;;;;;;;18.65;60.18;100720.28;10418027;28;97621;-79
2023/08/27 02:07:45;;;;;;;1.55;0.40;;;;;;;18.52;60.64;100719.41;10418923;28;96646;-79
2023/08/27 02:12:48;;;;;;;;;;;;;;;18.59;61.51;100725.19;10419708;28;96715;-78
2023/08/27 02:17:51;;;;;;;3.13;0.70;;;;;;;18.55;60.69;100716.53;10403653;27;96714;-78
2023/08/27 02:22:55;;;;;;;1.33;0.75;;;;;;;18.41;60.80;100716.53;10376791;28;96709;-78
2023/08/27 02:27:59;;;;;;;1.15;0.73;;;;;;;18.35;60.62;100716.91;10375508;28;96626;-78
2023/08/27 02:33:03;;;;;;;2.70;1.00;;;;;;;18.17;60.98;100697.66;10376616;28;98056;-78
2023/08/27 02:38:07;;;;;;;3.03;0.93;;;;;;;18.24;61.64;100695.44;10375915;28;96680;-78
2023/08/27 02:43:10;;;;;;;;;;;;;;;18.26;61.96;100721.97;10389639;28;96783;-78
2023/08/27 02:48:14;;;;;;;1.70;1.02;;;;;;;18.03;61.28;100734.94;10417372;28;96654;-78
2023/08/27 02:53:18;;;;;;;2.17;1.02;;;;;;;18.25;60.85;100739.75;10416057;27;97396;-78
2023/08/27 02:58:22;;;;;;;1.75;1.05;;;;;;;18.23;61.33;100744.31;10417103;28;96705;-78
2023/08/27 03:03:25;;;;;;;1.25;0.80;;;;;;;18.52;60.19;100754.03;10417988;28;97744;-78
2023/08/27 03:08:29;;;;;;;2.60;1.05;;;;;;;18.00;63.07;100753.75;10415869;28;96665;-78
2023/08/27 03:13:33;;;;;;;3.45;1.20;;;;;;;18.01;62.45;100755.47;10416230;28;96693;-78
2023/08/27 03:18:36;;;;;;;1.88;1.00;;;;;;;18.31;61.77;100757.16;10414716;28;97073;-78
2023/08/27 03:23:41;;;;;;;3.05;1.38;;;;;;;17.82;62.96;100762.88;10416407;28;96663;-78
2023/08/27 03:28:45;;;;;;;;;;;;;;;18.10;62.73;100767.38;10378385;28;96695;-78
2023/08/27 03:33:49;;;;;;;2.40;1.20;;;;;;;17.92;62.35;100766.69;10374600;28;96683;-78
2023/08/27 03:38:54;;;;;;;4.13;1.42;;;;;;;17.43;63.34;100770.56;10374173;28;96738;-78
2023/08/27 03:43:57;;;;;;;3.42;1.30;;;;;;;17.66;62.89;100769.22;10374829;28;97385;-78
2023/08/27 03:49:02;;;;;;;2.17;1.30;;;;;;;18.10;61.69;100764.72;10373887;28;96803;-78
2023/08/27 03:54:08;;;;;;;2.17;0.93;;;;;;;17.87;62.45;100767.91;10374391;28;97353;-78
2023/08/27 03:59:11;;;;;;;3.38;1.10;;;;;;;18.22;61.84;100784.38;10374107;28;98003;-78
2023/08/27 04:04:14;;;;;;;2.92;1.40;;;;;;;18.05;61.82;100780.97;10411483;27;96742;-78
2023/08/27 04:09:19;;;;;;;1.85;0.95;;;;;;;17.82;62.93;100799.31;10413940;28;96823;-79
2023/08/27 04:14:23;;;;;;;1.80;1.20;;;;;;;18.09;62.48;100795.81;10414675;28;97215;-78
2023/08/27 04:19:26;;;;;;;2.92;1.20;;;;;;;17.47;63.74;100797.88;10413297;28;97508;-78
2023/08/27 04:24:31;;;;;;;2.03;1.08;;;;;;;17.55;63.15;100793.84;10414412;28;96661;-79
2023/08/27 04:29:34;;;;;;;;;;;;;;;17.50;63.91;100792.41;10414734;28;97050;-79
2023/08/27 04:34:37;;;;;;;3.05;1.38;;;;;;;17.91;61.90;100810.25;10393260;28;96925;-78
2023/08/27 04:39:41;;;;;;;1.33;0.93;;;;;;;17.90;61.97;100810.38;10371831;28;96706;-78
2023/08/27 04:44:46;;;;;;;2.33;1.20;;;;;;;17.49;63.33;100820.81;10389899;28;96642;-79
2023/08/27 04:49:49;;;;;;;1.85;1.00;;;;;;;17.24;63.54;100836.47;10407251;28;96846;-79
2023/08/27 04:54:55;;;;;;;3.20;1.20;;;;;;;17.26;64.08;100839.88;10372306;28;96880;-78
2023/08/27 04:59:58;;;;;;;3.75;1.27;;;;;;;17.23;63.56;100834.72;10370706;28;97483;-78
2023/08/27 05:05:01;;;;;;;2.42;1.23;;;;;;;17.30;63.58;100852.06;10371587;28;96703;-79
2023/08/27 05:10:07;;;;;;;2.05;1.30;;;;;;;17.31;63.82;100858.25;10372118;28;96823;-78
2023/08/27 05:15:11;;;;;;;3.08;1.35;;;;;;;17.24;63.87;100856.88;10371317;28;97731;-78
2023/08/27 05:20:15;;;;;;;2.65;1.25;;;;;;;16.78;64.92;100862.13;10405245;28;97406;-78
2023/08/27 05:25:20;;;;;;;2.20;1.13;;;;;;;16.78;64.97;100871.88;10394509;28;96694;-79
2023/08/27 05:30:24;;;;;;;;;;;;;;;16.93;65.67;100868.38;10371651;28;98091;-78
2023/08/27 05:35:27;;;;;;;2.50;1.30;;;;;;;16.95;64.05;100880.66;10371576;28;96678;-79
2023/08/27 05:40:32;;;;;;;2.08;1.02;;;;;;;16.55;65.20;100894.41;10371201;28;97799;-78
2023/08/27 05:45:35;;;;;;;1.63;0.90;;;;;;;16.96;64.11;100913.44;10381164;28;97106;-79
2023/08/27 05:50:39;;;;;;;1.75;0.93;;;;;;;16.65;65.09;100914.22;10410598;28;96814;-79
2023/08/27 05:55:45;;;;;;;1.73;1.00;;;;;;;16.72;64.93;100928.88;10411362;28;97461;-79
2023/08/27 06:00:52;;;;;;;2.22;1.02;;;;;;;17.05;63.60;100936.84;10410599;28;96697;-79
2023/08/27 06:05:56;;;;;;;1.83;1.30;;;;;;;17.31;63.30;100941.56;10411431;28;96680;-79
2023/08/27 06:11:01;;;;;;;1.80;1.13;;;;;;;17.14;63.12;100946.97;10411184;28;96906;-79
2023/08/27 06:16:05;;;;;;;2.63;1.30;;;;;;;17.24;63.29;100955.31;10410122;28;96633;-79
2023/08/27 06:21:08;;;;;;;1.90;0.90;;;;;;;16.81;64.64;100957.63;10410244;28;96914;-79
2023/08/27 06:26:13;;;;;;;2.13;1.30;;;;;;;17.16;64.05;100962.81;10412009;28;96956;-79
2023/08/27 06:31:16;;;;;;;1.90;0.98;;;;;;;17.48;63.91;100970.78;10415407;27;96682;-79
2023/08/27 06:36:19;;;;;;;1.88;0.90;;;;;;;18.38;62.60;100988.53;10375936;28;97418;-79
2023/08/27 06:41:24;;;;;;;2.60;1.10;;;;;;;18.83;62.36;101004.44;10374707;28;96686;-79
2023/08/27 06:46:27;;;;;;;2.15;1.10;;;;;;;19.83;60.35;101003.34;10379555;28;96729;-79
2023/08/27 06:51:30;;;;;;;2.33;1.10;;;;;;;20.24;59.79;101007.66;10416857;28;97756;-79
2023/08/27 06:56:35;;;;;;;2.38;1.05;;;;;;;21.01;58.70;101004.09;10416965;28;96855;-79
2023/08/27 07:01:39;;;;;;;2.05;1.00;;;;;;;21.61;57.57;100997.03;10416875;28;97007;-79
2023/08/27 07:06:42;;;;;;;1.40;0.95;;;;;;;22.12;56.21;101006.63;10403492;28;96682;-79
2023/08/27 07:11:47;;;;;;;1.17;0.70;;;;;;;22.55;55.25;101012.25;10375384;28;97931;-79
2023/08/27 07:16:51;;;;;;;3.97;1.08;;;;;;;23.26;54.26;101025.41;10381591;28;97895;-79
2023/08/27 07:21:54;;;;;;;4.13;0.93;;;;;;;23.95;52.53;101026.91;10416199;28;97403;-79
2023/08/27 07:26:59;;;;;;;1.57;1.03;;;;;;;24.20;51.77;101029.28;10375949;28;96816;-79
2023/08/27 07:32:03;;;;;;;2.97;1.05;;;;;;;24.69;50.70;101030.41;10373431;28;96816;-79
2023/08/27 07:37:07;;;;;;;1.83;1.08;;;;;;;24.98;50.01;101029.72;10374379;28;96944;-79
2023/08/27 07:42:11;;;;;;;1.15;0.80;;;;;;;25.33;48.78;101024.84;10373582;28;97640;-79
2023/08/27 07:47:15;;;;;;;2.70;1.00;;;;;;;25.49;47.99;101022.47;10373967;28;97429;-79
2023/08/27 07:52:18;;;;;;;2.08;0.68;;;;;;;25.93;46.35;101025.56;10410422;28;97462;-79
2023/08/27 07:57:24;;;;;;;1.65;1.08;;;;;;;26.16;44.48;101007.28;10414382;28;96753;-79
2023/08/27 08:02:27;;;;;;;1.38;0.57;;;;;;;26.64;43.22;100999.19;10415185;28;96581;-79
2023/08/27 08:07:33;;;;;;;2.28;0.75;;;;;;;27.47;42.24;100989.25;10415970;28;97712;-79
2023/08/27 08:12:38;;;;;;;2.55;0.70;;;;;;;27.81;40.99;101012.00;10414914;28;96649;-79
2023/08/27 08:17:45;;;;;;;1.65;0.80;;;;;;;28.11;40.17;101027.03;10412573;28;97090;-79
2023/08/27 08:22:49;;;;;;;1.77;0.73;;;;;;;28.29;39.77;101033.31;10413723;28;96811;-79
2023/08/27 08:27:55;;;;;;;2.15;0.88;;;;;;;28.48;38.81;101043.97;10414253;28;96857;-79
2023/08/27 08:33:00;;;;;;;2.53;0.93;;;;;;;28.32;38.49;101045.69;10390191;28;96781;-79
2023/08/27 08:38:05;;;;;;;1.15;0.52;;;;;;;28.78;37.65;101042.69;10372374;28;96997;-79
2023/08/27 08:43:18;;;;;;;1.55;0.82;;;;;;;29.69;36.53;101039.38;10372621;28;96735;-79
2023/08/27 08:48:25;;;;;;;2.17;0.85;;;;;;;30.37;35.41;101035.47;10372451;28;97068;-79
2023/08/27 08:53:32;;;;;;;0.95;0.70;;;;;;;30.13;35.39;101040.88;10371148;28;96903;-79
2023/08/27 08:58:38;;;;;;;1.15;0.60;;;;;;;30.20;34.89;101053.63;10372540;28;96749;-79
2023/08/27 09:03:41;;;;;;;1.08;0.70;;;;;;;31.20;33.09;101031.50;10371414;28;96739;-79
2023/08/27 09:08:45;;;;;;;1.50;0.68;;;;;;;31.19;33.43;101032.53;10372250;28;96559;-79
2023/08/27 09:13:51;;;;;;;0.85;0.47;;;;;;;31.88;31.98;101026.34;10370368;28;96872;-79
2023/08/27 09:18:54;;;;;;;1.20;0.70;;;;;;;30.75;31.81;101023.13;10394270;28;96972;-79
2023/08/27 09:23:59;;;;;;;0.85;0.40;;;;;;;31.56;31.29;101011.03;10389076;28;96801;-79
2023/08/27 09:29:05;;;;;;;0.93;0.40;;;;;;;32.02;30.65;101020.16;10370985;28;96763;-79
2023/08/27 09:34:09;;;;;;;0.85;0.45;;;;;;;31.64;30.73;101007.41;10370766;28;96647;-79
2023/08/27 09:39:13;;;;;;;0.88;0.43;;;;;;;30.36;32.06;101012.06;10371146;28;97822;-79
2023/08/27 09:44:17;;;;;;;1.30;0.40;;;;;;;30.46;31.51;101009.16;10370864;28;97571;-79
2023/08/27 09:49:24;;;;;;;0.55;0.40;;;;;;;30.83;29.15;101001.38;10389924;28;96681;-80
2023/08/27 09:54:31;;;;;;;1.45;0.40;;;;;;;31.61;29.34;101013.22;10411975;28;96765;-79
2023/08/27 09:59:44;;;;;;;0.73;0.40;;;;;;;31.20;29.08;101013.34;10374535;28;97176;-80
2023/08/27 10:04:50;;;;;;;0.90;0.52;;;;;;;31.31;29.52;101015.72;10407511;28;97067;-80
2023/08/27 10:09:55;;;;;;;0.57;0.30;;;;;;;31.16;29.90;101030.19;10418879;28;96726;-79
2023/08/27 10:15:00;;;;;;;1.67;0.50;;;;;;;29.53;31.25;101026.59;10394862;28;96764;-80
2023/08/27 10:20:05;;;;;;;0.93;0.52;;;;;;;28.42;33.00;101039.19;10394925;28;97826;-79
2023/08/27 10:25:10;;;;;;;1.38;0.80;;;;;;;28.85;32.41;101046.47;10418270;28;96687;-79
2023/08/27 10:30:17;;;;;;;1.60;0.60;;;;;;;30.35;30.20;101050.25;10408943;28;97046;-79
2023/08/27 10:35:21;;;;;;;0.88;0.47;;;;;;;30.21;30.49;101049.88;10376064;28;96905;-79
2023/08/27 10:40:26;;;;;;;0.98;0.43;;;;;;;28.56;32.92;101051.31;10377181;28;97835;-80
2023/08/27 10:45:37;;;;;;;0.77;0.35;;;;;;;28.96;31.72;101043.53;10376194;28;97310;-80
2023/08/27 10:50:49;;;;;;;0.90;0.50;;;;;;;29.33;31.57;101035.97;10414264;28;96957;-79
2023/08/27 10:55:53;;;;;;;0.68;0.50;;;;;;;30.28;31.17;101039.22;10415998;28;97229;-80
2023/08/27 11:01:07;;;;;;;1.42;0.38;;;;;;;29.26;31.70;101039.50;10417337;28;96698;-80
2023/08/27 11:06:15;;;;;;;1.77;0.45;;;;;;;27.84;33.25;101043.31;10391334;28;96762;-80
2023/08/27 11:11:23;;;;;;;1.13;0.70;;;;;;;29.53;31.77;101042.03;10375308;28;96591;-80
2023/08/27 11:16:30;;;;;;;1.38;0.70;;;;;;;29.28;32.35;101016.63;10373864;28;97343;-80
2023/08/27 11:21:48;;;;;;;0.57;0.43;;;;;;;30.19;31.08;101019.38;10393547;28;96802;-78
2023/08/27 11:26:54;;;;;;;1.80;0.70;;;;;;;31.25;29.32;101021.84;10374896;28;97491;-80
2023/08/27 11:32:03;;;;;;;0.88;0.52;;;;;;;31.43;29.69;101018.03;10375299;28;96885;-79
2023/08/27 11:37:06;;;;;;;2.90;0.80;;;;;;;30.13;30.45;101021.88;10374428;28;96647;-81
2023/08/27 11:42:11;;;;;;;1.10;0.60;;;;;;;30.05;30.40;101006.41;10374055;28;96884;-80
2023/08/27 11:47:16;;;;;;;1.00;0.60;;;;;;;29.97;30.90;101016.41;10372888;28;96751;-80
2023/08/27 11:52:19;;;;;;;0.82;0.57;;;;;;;30.50;30.24;101008.69;10408873;28;97414;-79
2023/08/27 11:57:22;;;;;;;0.82;0.68;;;;;;;30.55;30.52;100989.13;10414448;28;96729;-79
2023/08/27 12:02:27;;;;;;;2.00;0.82;;;;;;;29.86;30.83;100982.28;10415342;28;97159;-79
2023/08/27 12:07:33;;;;;;;0.88;0.40;;;;;;;29.18;31.31;100959.81;10414944;28;97063;-79
2023/08/27 12:12:40;;;;;;;1.60;0.73;;;;;;;29.34;31.68;100964.47;10413883;28;96801;-81
2023/08/27 12:17:44;;;;;;;0.60;0.50;;;;;;;29.46;31.41;100956.84;10413936;28;96715;-80
2023/08/27 12:22:48;;;;;;;1.23;0.50;;;;;;;29.60;31.08;100964.41;10415277;28;96532;-80
2023/08/27 12:27:52;;;;;;;2.22;0.70;;;;;;;29.68;31.16;100967.97;10413539;27;96620;-80
2023/08/27 12:32:57;;;;;;;1.20;0.52;;;;;;;28.87;31.40;100979.41;10373712;28;96728;-81
2023/08/27 12:38:00;;;;;;;1.42;0.50;;;;;;;28.70;32.07;100954.09;10370980;28;96892;-80
2023/08/27 12:43:04;;;;;;;1.00;0.60;;;;;;;29.09;31.47;100962.63;10372830;28;97972;-79
2023/08/27 12:48:10;;;;;;;1.00;0.60;;;;;;;28.18;32.72;100956.88;10372310;28;96660;-80
2023/08/27 12:53:14;;;;;;;1.00;0.60;;;;;;;28.51;32.47;100948.03;10413332;28;96734;-81
2023/08/27 12:58:17;;;;;;;0.60;0.40;;;;;;;28.79;31.92;100931.44;10413518;28;97077;-81
2023/08/27 13:03:22;;;;;;;2.85;0.50;;;;;;;28.70;31.49;100924.31;10402319;28;97263;-79
2023/08/27 13:08:25;;;;;;;1.35;0.60;;;;;;;28.36;32.47;100923.38;10371654;28;97813;-78
2023/08/27 13:13:30;;;;;;;0.95;0.45;;;;;;;28.44;32.15;100912.63;10372000;28;96628;-79
2023/08/27 13:18:35;;;;;;;1.45;0.70;;;;;;;28.54;32.73;100918.78;10371046;28;97022;-81
2023/08/27 13:23:39;;;;;;;1.83;0.50;;;;;;;28.63;32.25;100915.13;10371823;28;97688;-81
2023/08/27 13:28:44;;;;;;;1.77;0.77;;;;;;;28.70;32.23;100921.59;10369924;28;96731;-80
2023/08/27 13:33:49;;;;;;;0.98;0.40;;;;;;;28.70;32.25;100897.22;10371007;28;96610;-81
2023/08/27 13:38:53;;;;;;;0.93;0.40;;;;;;;28.30;32.91;100909.63;10375332;28;96683;-81
2023/08/27 13:43:57;;;;;;;0.40;0.35;;;;;;;28.45;32.50;100898.06;10378392;28;96755;-80
2023/08/27 13:49:02;;;;;;;0.90;0.50;;;;;;;28.84;31.64;100887.63;10406366;22;97528;-80
2023/08/27 13:54:08;;;;;;;1.48;0.70;;;;;;;28.86;31.96;100897.28;10418555;28;96681;-81
2023/08/27 13:59:12;;;;;;;1.15;0.50;;;;;;;28.95;31.78;100890.06;10419235;28;97734;-81
2023/08/27 14:04:16;;;;;;;0.65;0.30;;;;;;;28.44;32.37;100888.25;10420053;28;96750;-81
2023/08/27 14:09:20;;;;;;;0.50;0.38;;;;;;;28.04;32.28;100906.84;10418903;28;97733;-81
2023/08/27 14:14:23;;;;;;;0.77;0.40;;;;;;;27.78;32.80;100900.53;10418011;28;96669;-81
2023/08/27 14:19:28;;;;;;;0.85;0.35;;;;;;;28.52;31.49;100888.28;10417438;28;97496;-80
2023/08/27 14:24:33;;;;;;;1.17;0.65;;;;;;;28.06;32.42;100899.44;10418382;28;96876;-79
2023/08/27 14:29:37;;;;;;;0.88;0.30;;;;;;;27.85;32.95;100896.19;10397307;28;96781;-81
2023/08/27 14:34:43;;;;;;;1.00;0.30;;;;;;;28.43;31.89;100894.66;10376568;28;96771;-81
2023/08/27 14:39:46;;;;;;;2.30;0.52;;;;;;;29.20;31.58;100897.28;10376253;28;96879;-79
2023/08/27 14:44:50;;;;;;;;;;;;;;;28.65;31.42;100904.13;10377163;28;96750;-80
2023/08/27 14:49:55;;;;;;;1.17;0.57;;;;;;;28.85;31.83;100905.56;10388787;28;96854;-81
2023/08/27 14:54:58;;;;;;;1.70;0.55;;;;;;;28.68;31.65;100874.00;10418237;28;96725;-79
2023/08/27 15:00:05;;;;;;;2.28;0.30;;;;;;;28.80;31.62;100886.25;10417399;28;96691;-80
2023/08/27 15:05:10;;;;;;;0.38;0.28;;;;;;;28.97;31.58;100874.50;10416580;28;97064;-80
2023/08/27 15:10:14;;;;;;;1.05;0.40;;;;;;;29.19;31.45;100873.91;10415678;28;96733;-79
2023/08/27 15:15:18;;;;;;;;;;;;;;;29.15;30.94;100869.81;10417190;28;96673;-82
2023/08/27 15:20:26;;;;;;;1.35;0.52;;;;;;;28.94;31.81;100877.53;10415276;28;97083;-81
2023/08/27 15:25:30;;;;;;;0.70;0.50;;;;;;;28.89;31.92;100878.00;10416689;28;96738;-81
2023/08/27 15:30:34;;;;;;;1.00;0.60;;;;;;;28.27;32.40;100882.84;10416142;28;96591;-82
2023/08/27 15:35:39;;;;;;;1.08;0.60;;;;;;;28.09;33.02;100881.03;10411737;28;96915;-80
2023/08/27 15:40:52;;;;;;;1.20;0.70;;;;;;;28.13;33.29;100883.41;10374395;28;96614;-81
2023/08/27 15:45:55;;;;;;;0.77;0.40;;;;;;;28.44;32.23;100881.97;10375071;28;96686;-79
2023/08/27 15:51:00;;;;;;;3.40;0.70;;;;;;;28.36;32.33;100876.53;10377630;28;96934;-79
2023/08/27 15:56:03;;;;;;;1.35;0.60;;;;;;;28.30;32.60;100879.84;10382455;28;96971;-79
2023/08/27 16:01:06;;;;;;;1.30;0.50;;;;;;;28.33;32.51;100879.53;10371805;28;97561;-82
2023/08/27 16:06:11;;;;;;;1.20;0.40;;;;;;;28.26;32.99;100879.28;10409113;28;96726;-82
2023/08/27 16:11:15;;;;;;;1.58;0.40;;;;;;;28.32;33.17;100877.84;10396872;28;96758;-80
2023/08/27 16:16:18;;;;;;;0.35;0.35;;;;;;;28.16;33.38;100875.81;10372914;28;97363;-80
2023/08/27 16:21:26;;;;;;;0.80;0.50;;;;;;;27.97;33.44;100882.28;10392903;28;97550;-81
2023/08/27 16:26:41;;;;;;;1.60;0.63;;;;;;;27.80;33.77;100891.28;10494568;27;96787;-81
2023/08/27 16:31:44;;;;;;;0.55;0.30;;;;;;;27.63;34.24;100897.47;10455537;27;96746;-82
2023/08/27 16:36:47;;;;;;;1.70;0.77;;;;;;;27.58;34.07;100905.19;10455282;27;97095;-81
2023/08/27 16:41:52;;;;;;;1.63;0.57;;;;;;;27.49;34.76;100894.47;10454836;27;96746;-81
2023/08/27 16:46:55;;;;;;;0.63;0.40;;;;;;;27.32;34.71;100892.59;10455141;27;96847;-81
2023/08/27 16:51:58;;;;;;;;;;;;;;;27.39;34.42;100908.03;10454592;27;96845;-81
2023/08/27 16:57:03;;;;;;;1.13;0.50;;;;;;;27.38;34.76;100913.59;10454778;27;96796;-82
2023/08/27 17:02:07;;;;;;;1.98;0.40;;;;;;;27.24;35.24;100917.66;10453977;27;97493;-82
2023/08/27 17:07:10;;;;;;;1.05;0.60;;;;;;;27.10;34.93;100922.72;10453976;27;96906;-80
2023/08/27 17:12:15;;;;;;;0.70;0.37;;;;;;;27.20;35.26;100937.88;10454131;27;97117;-81
2023/08/27 17:17:18;;;;;;;0.45;0.40;;;;;;;27.10;34.91;100934.38;10453308;27;96766;-80
2023/08/27 17:22:23;;;;;;;2.30;0.63;;;;;;;27.12;34.93;100932.38;10453537;27;96962;-81
2023/08/27 17:27:27;;;;;;;2.67;0.63;;;;;;;27.09;35.17;100943.50;10453275;27;96745;-81
2023/08/27 17:32:30;;;;;;;1.17;0.47;;;;;;;27.07;35.89;100939.22;10453509;27;96790;-81
2023/08/27 17:37:34;;;;;;;0.87;0.50;;;;;;;26.84;37.21;100941.41;10427041;27;97086;-81
2023/08/27 17:42:39;;;;;;;;;;;;;;;26.91;37.73;100951.50;10425717;27;97126;-81
2023/08/27 17:47:43;;;;;;;;;;;;;;;26.84;38.22;100954.94;10425697;28;96648;-80
2023/08/27 17:52:46;;;;;;;1.50;0.40;;;;;;;26.73;38.10;100958.66;10424191;28;96688;-82
2023/08/27 17:57:52;;;;;;;0.82;0.47;;;;;;;26.49;38.62;100968.25;10424375;27;96593;-81
2023/08/27 18:02:55;;;;;;;1.65;0.77;;;;;;;26.45;39.05;100969.53;10424547;27;96687;-80
2023/08/27 18:07:58;;;;;;;1.23;0.43;;;;;;;26.38;39.61;100969.25;10424932;27;96664;-82
2023/08/27 18:13:04;;;;;;;;;;;;;;;26.37;39.87;100967.53;10424685;28;97150;-81
2023/08/27 18:18:08;;;;;;;1.75;0.50;;;;;;;26.22;40.13;100984.28;10424197;27;96745;-82
2023/08/27 18:23:12;;;;;;;1.35;0.65;;;;;;;25.96;40.86;100978.59;10423395;27;96815;-81
2023/08/27 18:28:18;;;;;;;1.33;0.68;;;;;;;25.95;41.42;100984.16;10423297;27;96878;-81
2023/08/27 18:33:21;;;;;;;2.60;0.77;;;;;;;25.82;41.82;100981.72;10423629;27;97377;-82
2023/08/27 18:38:25;;;;;;;0.77;0.43;;;;;;;25.65;42.12;100998.53;10423272;27;97902;-81
2023/08/27 18:43:32;;;;;;;2.60;0.60;;;;;;;25.66;42.07;101000.22;10423058;28;97140;-81
2023/08/27 18:48:35;;;;;;;1.38;0.50;;;;;;;25.63;42.01;101000.53;10421508;27;96772;-81
2023/08/27 18:53:38;;;;;;;1.07;0.47;;;;;;;25.47;42.51;101002.88;10422526;27;96947;-79
2023/08/27 18:58:43;;;;;;;1.57;0.60;;;;;;;25.53;42.38;101024.78;10422409;28;96664;-80
2023/08/27 19:03:46;;;;;;;1.58;0.60;;;;;;;25.21;43.48;101032.16;10423292;27;96787;-82
2023/08/27 19:08:50;;;;;;;3.30;0.87;;;;;;;25.00;44.00;101038.56;10422216;27;96882;-81
2023/08/27 19:13:56;;;;;;;0.75;0.60;;;;;;;24.98;43.95;101046.75;10421752;28;96871;-81
2023/08/27 19:18:59;;;;;;;2.03;0.50;;;;;;;24.99;44.10;101061.94;10421547;27;97094;-80
2023/08/27 19:24:03;;;;;;;1.13;0.40;;;;;;;24.69;44.95;101054.63;10421386;27;96960;-81
2023/08/27 19:29:07;;;;;;;1.30;0.80;;;;;;;24.82;44.61;101046.38;10421885;27;97827;-80
2023/08/27 19:34:11;;;;;;;2.67;0.60;;;;;;;24.71;45.01;101049.13;10421277;27;96911;-80
2023/08/27 19:39:14;;;;;;;2.33;0.60;;;;;;;24.56;45.85;101066.56;10421295;27;97371;-80
2023/08/27 19:44:19;;;;;;;0.50;0.40;;;;;;;24.46;46.27;101077.25;10421201;27;96703;-80
2023/08/27 19:49:23;;;;;;;1.73;0.60;;;;;;;24.43;46.46;101082.91;10420967;28;97047;-79
2023/08/27 19:54:26;;;;;;;1.08;0.55;;;;;;;24.14;47.83;101083.56;10405584;28;97717;-79
2023/08/27 19:59:31;;;;;;;0.97;0.50;;;;;;;24.12;47.58;101082.84;10399683;28;96950;-79
2023/08/27 20:04:35;;;;;;;1.52;0.50;;;;;;;24.24;47.04;101092.59;10420564;27;96707;-79
2023/08/27 20:09:39;;;;;;;2.42;0.70;;;;;;;24.18;47.13;101087.72;10420061;27;97350;-79
2023/08/27 20:14:44;;;;;;;;;;;;;;;24.07;47.59;101091.31;10420844;27;96590;-79
2023/08/27 20:19:48;;;;;;;1.75;0.80;;;;;;;24.08;47.01;101098.38;10420488;28;96851;-78
2023/08/27 20:24:51;;;;;;;1.42;0.50;;;;;;;23.89;47.63;101113.47;10419247;27;96596;-78
2023/08/27 20:29:56;;;;;;;1.73;0.43;;;;;;;23.75;47.90;101129.84;10419842;27;96701;-78
2023/08/27 20:35:00;;;;;;;1.25;0.63;;;;;;;23.70;48.25;101139.13;10419691;27;96979;-79
2023/08/27 20:40:05;;;;;;;;;;;;;;;23.51;48.81;101154.13;10419940;27;97052;-78
2023/08/27 20:45:10;;;;;;;0.98;0.50;;;;;;;23.60;48.09;101158.78;10419651;27;97175;-79
2023/08/27 20:50:16;;;;;;;2.38;0.60;;;;;;;23.46;48.97;101167.91;10419359;27;96956;-79
2023/08/27 20:55:21;;;;;;;1.60;0.60;;;;;;;23.42;49.14;101154.84;10419218;27;97918;-78
2023/08/27 21:00:26;;;;;;;1.27;0.60;;;;;;;23.28;49.58;101171.19;10418676;27;96749;-78
2023/08/27 21:05:30;;;;;;;1.95;0.57;;;;;;;23.19;49.57;101178.13;10418874;27;96748;-78
2023/08/27 21:10:34;;;;;;;1.00;0.40;;;;;;;23.01;50.30;101170.63;10421884;27;96601;-78
2023/08/27 21:15:40;;;;;;;1.25;0.55;;;;;;;23.07;50.06;101175.53;10425901;27;96682;-78
2023/08/27 21:20:44;;;;;;;2.25;0.70;;;;;;;23.04;50.17;101171.25;10425736;27;97307;-78
2023/08/27 21:25:47;;;;;;;0.77;0.32;;;;;;;23.11;50.09;101163.59;10425247;27;97261;-79
2023/08/27 21:30:51;;;;;;;1.52;0.70;;;;;;;23.18;50.17;101183.63;10425759;27;96994;-79
2023/08/27 21:35:55;;;;;;;2.50;0.70;;;;;;;22.75;50.88;101183.28;10425309;27;97711;-79
2023/08/27 21:40:58;;;;;;;1.90;0.70;;;;;;;22.89;50.74;101183.16;10425409;27;96653;-79
2023/08/27 21:46:03;;;;;;;1.07;0.40;;;;;;;22.58;51.61;101184.56;10424928;27;97505;-79
2023/08/27 21:51:08;;;;;;;1.40;0.50;;;;;;;22.63;51.61;101172.66;10424830;27;97449;-79
2023/08/27 21:56:11;;;;;;;2.97;0.60;;;;;;;22.53;51.67;101180.50;10424456;27;96665;-79
2023/08/27 22:01:16;;;;;;;2.88;0.80;;;;;;;22.57;51.66;101182.00;10424692;27;96651;-79
2023/08/27 22:06:20;;;;;;;0.63;0.40;;;;;;;22.56;51.77;101188.31;10425123;27;97066;-79
2023/08/27 22:11:23;;;;;;;1.55;0.55;;;;;;;22.30;52.21;101192.94;10424454;27;96558;-79
2023/08/27 22:16:28;;;;;;;1.90;0.67;;;;;;;22.49;51.55;101195.09;10423868;27;96837;-79
2023/08/27 22:21:33;;;;;;;1.27;0.60;;;;;;;22.31;52.24;101197.34;10423576;27;96716;-79
2023/08/27 22:26:37;;;;;;;0.98;0.40;;;;;;;22.22;52.51;101194.47;10423963;27;98000;-79
2023/08/27 22:31:41;;;;;;;2.75;0.65;;;;;;;22.02;53.07;101198.56;10423333;27;96808;-79
2023/08/27 22:36:45;;;;;;;2.13;0.70;;;;;;;21.89;53.54;101194.19;10423328;28;97443;-79
2023/08/27 22:41:48;;;;;;;1.13;0.50;;;;;;;21.99;53.17;101205.97;10423111;27;97033;-78
2023/08/27 22:46:53;;;;;;;2.85;0.50;;;;;;;22.04;53.13;101211.91;10422920;27;97745;-79
2023/08/27 22:51:57;;;;;;;0.70;0.50;;;;;;;21.95;53.69;101208.00;10422707;27;97693;-79
2023/08/27 22:57:01;;;;;;;2.42;0.63;;;;;;;21.62;54.41;101215.75;10422336;27;96788;-79
2023/08/27 23:02:07;;;;;;;2.50;0.75;;;;;;;21.35;55.12;101217.66;10422229;28;96762;-79
2023/08/27 23:07:11;;;;;;;2.42;0.70;;;;;;;21.43;55.00;101223.34;10422010;27;96849;-78
2023/08/27 23:12:14;;;;;;;1.70;0.50;;;;;;;21.43;54.87;101212.66;10422463;27;96892;-79
2023/08/27 23:17:19;;;;;;;1.42;0.70;;;;;;;21.35;55.22;101212.28;10421687;27;96848;-79
2023/08/27 23:22:24;;;;;;;2.13;0.73;;;;;;;21.31;55.29;101217.00;10421923;27;96873;-79